Lehigh, Florida
Current Conditions -  °F | °C
As of 4:48 AM on Sunday 23 Nov 2014 (Local Time) from KRSW Reporting Station
Haze Haze  
Wind Chill: 70°   Ceiling: 400
Heat Index: 70°   Visibility: 5mi
Dew Point: 69°   Wind: 5mph
Humidity: 97%   Direction: 120°ESE
Pressure: 30"   Gusts: NA
Location:  26.6076°N, 81.705°W
Report Text: KRSW 230948Z AUTO 12004KT 5SM BR BKN004 OVC018 21/21 A3000 RMK AO2 SLP155 T02110206
Loading
Personal Weather Stations






























Interactive Weather Map New forecast layout! Learn more

10-Day Weather Forecast

Advertisements
Track Severe Weather on mobile